createdAt,value
2022-11-24T00:00:43.296Z,89.55
2022-11-24T00:06:07.637Z,90.10
2022-11-24T00:11:14.211Z,90.01
2022-11-24T00:16:20.239Z,89.30
2022-11-24T00:21:24.489Z,90.03
2022-11-24T00:26:30.257Z,89.54
2022-11-24T00:31:38.527Z,89.85
2022-11-24T00:36:42.394Z,89.76
2022-11-24T00:41:45.508Z,89.54
2022-11-24T00:46:48.675Z,89.59
2022-11-24T00:51:52.141Z,89.49
2022-11-24T00:56:55.174Z,89.40
2022-11-24T01:01:58.201Z,89.54
2022-11-24T01:07:01.291Z,90.00
2022-11-24T01:12:04.543Z,89.46
2022-11-24T01:17:07.606Z,89.05
2022-11-24T01:22:10.620Z,89.19
2022-11-24T01:27:13.620Z,89.19
2022-11-24T01:32:16.626Z,89.67
2022-11-24T01:37:19.940Z,89.34
2022-11-24T01:42:23.251Z,89.65
2022-11-24T01:47:41.105Z,89.15
2022-11-24T01:52:49.847Z,88.61
2022-11-24T01:58:02.892Z,88.38
2022-11-24T02:03:06.421Z,89.00
2022-11-24T02:08:19.709Z,88.35
2022-11-24T02:13:23.066Z,88.64
2022-11-24T02:18:26.277Z,88.22
2022-11-24T02:24:00.312Z,87.64
2022-11-24T02:29:04.332Z,88.02
2022-11-24T02:34:07.350Z,89.22
2022-11-24T02:39:13.224Z,88.56
2022-11-24T02:44:20.015Z,87.88
2022-11-24T02:49:23.027Z,88.16
2022-11-24T02:54:26.130Z,87.79
2022-11-24T02:59:29.137Z,88.23
2022-11-24T03:04:32.503Z,88.79
2022-11-24T03:09:35.765Z,88.73
2022-11-24T03:14:38.772Z,88.76
2022-11-24T03:19:41.777Z,88.79
2022-11-24T03:24:44.987Z,88.55
2022-11-24T03:29:47.995Z,88.98
2022-11-24T03:34:51.000Z,89.15
2022-11-24T03:39:54.107Z,89.78
2022-11-24T03:44:57.220Z,89.49
2022-11-24T03:50:00.226Z,88.86
2022-11-24T03:55:03.331Z,88.59
2022-11-24T04:00:07.333Z,88.79
2022-11-24T04:05:10.572Z,88.63
2022-11-24T04:10:13.976Z,88.38
2022-11-24T04:15:19.266Z,88.83
2022-11-24T04:20:22.355Z,88.57
2022-11-24T04:25:25.361Z,88.56
2022-11-24T04:30:29.250Z,88.66
2022-11-24T04:35:32.297Z,88.38
2022-11-24T04:40:35.302Z,88.07
2022-11-24T04:45:38.825Z,88.78
2022-11-24T04:50:42.135Z,88.71
2022-11-24T04:55:45.138Z,88.49
2022-11-24T05:00:48.146Z,87.85
2022-11-24T05:05:51.154Z,87.84
2022-11-24T05:10:54.152Z,87.98
2022-11-24T05:15:57.149Z,87.90
2022-11-24T05:21:00.265Z,88.26
2022-11-24T05:26:03.783Z,88.26
2022-11-24T05:31:06.914Z,88.48
2022-11-24T05:36:30.479Z,87.87
2022-11-24T05:41:33.337Z,87.94
2022-11-24T05:46:36.325Z,88.09
2022-11-24T05:51:39.292Z,88.13
2022-11-24T05:56:42.200Z,88.90
2022-11-24T06:01:45.096Z,88.68
2022-11-24T06:06:48.101Z,88.68
2022-11-24T06:11:50.899Z,88.15
2022-11-24T06:16:53.653Z,88.35
2022-11-24T06:21:56.708Z,88.50
2022-11-24T06:26:59.654Z,88.13
2022-11-24T06:32:02.577Z,87.88
2022-11-24T06:37:05.611Z,88.16
2022-11-24T06:42:09.146Z,88.18
2022-11-24T06:47:11.935Z,88.29
2022-11-24T06:52:14.769Z,87.59
2022-11-24T06:57:17.752Z,87.86
2022-11-24T07:02:20.653Z,88.45
2022-11-24T07:07:23.785Z,88.62
2022-11-24T07:12:26.718Z,88.07
2022-11-24T07:17:29.523Z,87.81
2022-11-24T07:22:32.279Z,87.64
2022-11-24T07:27:35.174Z,87.51
2022-11-24T07:32:37.976Z,87.38
2022-11-24T07:37:40.716Z,86.95
2022-11-24T07:42:43.418Z,87.26
2022-11-24T07:47:46.249Z,87.12
2022-11-24T07:52:49.220Z,87.49
2022-11-24T07:57:52.093Z,87.28
2022-11-24T08:02:54.810Z,87.11
2022-11-24T08:07:59.997Z,86.78
2022-11-24T08:13:02.763Z,86.75
2022-11-24T08:18:06.078Z,86.57
2022-11-24T08:23:09.070Z,86.33
2022-11-24T08:28:11.848Z,85.93
2022-11-24T08:33:14.607Z,86.25
2022-11-24T08:38:17.460Z,86.14
2022-11-24T08:43:20.363Z,86.52
2022-11-24T08:48:23.167Z,86.50
2022-11-24T08:53:26.113Z,86.79
2022-11-24T08:58:30.200Z,86.61
2022-11-24T09:03:32.918Z,86.45
2022-11-24T09:08:37.521Z,85.92
2022-11-24T09:13:41.064Z,86.39
2022-11-24T09:18:44.464Z,85.61
2022-11-24T09:23:49.107Z,85.72
2022-11-24T09:28:56.321Z,86.09
2022-11-24T09:33:59.655Z,86.13
2022-11-24T09:39:03.164Z,85.86
2022-11-24T09:44:16.319Z,86.14
2022-11-24T09:49:51.695Z,86.18
2022-11-24T09:55:00.500Z,85.75
2022-11-24T10:00:12.569Z,85.29
2022-11-24T10:05:15.536Z,85.16
2022-11-24T10:10:37.050Z,85.31
2022-11-24T10:16:11.080Z,85.01
2022-11-24T10:21:32.837Z,85.19
2022-11-24T10:26:39.555Z,84.98
2022-11-24T10:31:43.730Z,85.27
2022-11-24T10:37:08.306Z,85.82
2022-11-24T10:42:18.260Z,85.63
2022-11-24T10:47:22.909Z,85.39
2022-11-24T10:52:28.828Z,85.18
2022-11-24T10:57:37.328Z,84.63
2022-11-24T11:02:40.585Z,84.53
2022-11-24T11:07:43.743Z,85.07
2022-11-24T11:12:46.813Z,85.12
2022-11-24T11:17:52.534Z,84.92
2022-11-24T11:22:57.539Z,84.48
2022-11-24T11:28:29.238Z,84.43
2022-11-24T11:38:59.733Z,84.88
2022-11-24T11:44:11.748Z,85.36
2022-11-24T11:49:14.569Z,85.55
2022-11-24T11:54:34.060Z,85.21
2022-11-24T12:00:05.587Z,84.83
2022-11-24T12:05:14.367Z,84.85
2022-11-24T12:10:33.879Z,85.07
2022-11-24T12:15:56.986Z,85.30
2022-11-24T12:21:29.486Z,85.70
2022-11-24T12:26:41.443Z,85.56
2022-11-24T12:32:03.802Z,85.91
2022-11-24T12:37:24.806Z,85.88
2022-11-24T12:42:36.715Z,86.22
2022-11-24T12:48:07.337Z,86.07
2022-11-24T12:53:14.994Z,85.90
2022-11-24T12:58:31.659Z,86.07
2022-11-24T13:04:12.548Z,85.70
2022-11-24T13:09:15.812Z,85.69
2022-11-24T13:14:22.867Z,85.67
2022-11-24T13:19:31.137Z,85.97
2022-11-24T13:24:37.451Z,86.28
2022-11-24T13:30:01.356Z,85.71
2022-11-24T13:35:14.803Z,85.16
2022-11-24T13:40:18.341Z,85.33
2022-11-24T13:45:39.545Z,86.05
2022-11-24T13:50:51.929Z,86.15
2022-11-24T13:55:59.977Z,85.91
2022-11-24T14:01:08.903Z,85.99
2022-11-24T14:06:25.827Z,85.78
2022-11-24T14:11:29.153Z,85.70
2022-11-24T14:16:31.851Z,85.37
2022-11-24T14:21:38.253Z,85.21
2022-11-24T14:26:41.761Z,85.56
2022-11-24T14:31:56.309Z,85.41
2022-11-24T14:37:00.755Z,85.54
2022-11-24T14:42:08.142Z,85.40
2022-11-24T14:47:32.250Z,85.30
2022-11-24T14:52:36.106Z,85.58
2022-11-24T14:57:42.601Z,84.90
2022-11-24T15:03:00.414Z,85.62
2022-11-24T15:08:03.991Z,85.33
2022-11-24T15:13:15.261Z,85.31
2022-11-24T15:18:30.044Z,85.23
2022-11-24T15:23:35.236Z,84.96
2022-11-24T15:28:38.533Z,84.91
2022-11-24T15:33:42.247Z,85.17
2022-11-24T15:38:44.955Z,85.34
2022-11-24T15:43:47.789Z,84.71
2022-11-24T15:48:50.592Z,84.98
2022-11-24T15:54:00.378Z,85.45
2022-11-24T15:59:04.184Z,85.59
2022-11-24T16:04:07.798Z,85.98
2022-11-24T16:09:15.034Z,86.03
2022-11-24T16:14:17.807Z,86.07
2022-11-24T16:19:20.562Z,86.14
2022-11-24T16:24:23.358Z,86.19
2022-11-24T16:29:26.211Z,86.08
2022-11-24T16:34:28.910Z,86.17
2022-11-24T16:39:31.666Z,86.45
2022-11-24T16:44:34.852Z,86.37
2022-11-24T16:49:37.887Z,86.22
2022-11-24T16:54:40.684Z,86.09
2022-11-24T16:59:43.738Z,86.29
2022-11-24T17:04:46.539Z,85.94
2022-11-24T17:09:49.437Z,86.33
2022-11-24T17:15:16.288Z,86.68
2022-11-24T17:20:15.479Z,87.04
2022-11-24T17:25:18.333Z,86.94
2022-11-24T17:30:21.112Z,86.79
2022-11-24T17:35:23.813Z,86.84
2022-11-24T17:40:29.080Z,86.72
2022-11-24T17:45:32.670Z,86.70
2022-11-24T17:50:35.521Z,86.82
2022-11-24T17:55:38.513Z,86.85
2022-11-24T18:00:41.251Z,86.51
2022-11-24T18:05:44.136Z,86.78
2022-11-24T18:10:46.991Z,86.66
2022-11-24T18:15:49.711Z,86.67
2022-11-24T18:21:01.211Z,85.72
2022-11-24T18:26:05.707Z,86.59
2022-11-24T18:31:12.261Z,86.84
2022-11-24T18:36:18.538Z,86.74
2022-11-24T18:41:22.367Z,86.22
2022-11-24T18:46:25.572Z,86.70
2022-11-24T18:51:28.437Z,86.73
2022-11-24T18:56:31.675Z,86.48
2022-11-24T19:01:34.521Z,86.27
2022-11-24T19:06:38.008Z,86.73
2022-11-24T19:11:43.477Z,87.07
2022-11-24T19:16:48.272Z,86.82
2022-11-24T19:21:51.533Z,86.10
2022-11-24T19:26:54.778Z,86.47
2022-11-24T19:31:57.710Z,86.84
2022-11-24T19:37:00.961Z,86.74
2022-11-24T19:42:04.880Z,87.24
2022-11-24T19:47:07.569Z,86.92
2022-11-24T19:52:10.325Z,86.76
2022-11-24T19:57:13.190Z,87.14
2022-11-24T20:02:16.129Z,86.94
2022-11-24T20:07:20.508Z,86.65
2022-11-24T20:12:23.539Z,86.69
2022-11-24T20:17:30.091Z,86.52
2022-11-24T20:22:32.932Z,86.73
2022-11-24T20:27:35.670Z,87.27
2022-11-24T20:32:38.440Z,86.98
2022-11-24T20:43:01.750Z,86.39
2022-11-24T20:48:04.633Z,86.49
2022-11-24T20:53:07.556Z,86.53
2022-11-24T20:58:11.593Z,86.46
2022-11-24T21:03:14.493Z,86.70
2022-11-24T21:08:19.458Z,87.16
2022-11-24T21:13:22.377Z,86.94
2022-11-24T21:18:25.135Z,86.96
2022-11-24T21:23:28.273Z,86.95
2022-11-24T21:28:31.151Z,86.70
2022-11-24T21:33:34.329Z,86.60
2022-11-24T21:38:37.144Z,86.16
2022-11-24T21:43:39.885Z,86.27
2022-11-24T21:48:43.057Z,85.96
2022-11-24T21:53:47.115Z,86.59
2022-11-24T21:58:53.620Z,87.26
2022-11-24T22:03:56.507Z,86.31
2022-11-24T22:08:59.329Z,86.29
2022-11-24T22:14:02.108Z,86.45
2022-11-24T22:19:05.020Z,87.17
2022-11-24T22:24:08.372Z,87.23
2022-11-24T22:29:11.235Z,87.26
2022-11-24T22:34:14.005Z,87.13
2022-11-24T22:39:16.742Z,87.30
2022-11-24T22:44:19.503Z,87.48
2022-11-24T22:49:23.672Z,87.15
2022-11-24T22:54:26.388Z,87.47
2022-11-24T22:59:29.177Z,87.29
2022-11-24T23:04:31.947Z,87.35
2022-11-24T23:09:34.767Z,87.45
2022-11-24T23:14:37.634Z,87.01
2022-11-24T23:19:40.495Z,87.00
2022-11-24T23:24:43.280Z,86.64
2022-11-24T23:29:46.094Z,86.58
2022-11-24T23:34:48.979Z,86.99
2022-11-24T23:39:51.993Z,87.42
2022-11-24T23:44:54.786Z,86.80
2022-11-24T23:49:57.469Z,86.56
